createdAt,value
2018-09-04T00:01:50.733Z,48.20
2018-09-04T00:04:25.088Z,47.37
2018-09-04T00:06:59.152Z,46.47
2018-09-04T00:09:31.707Z,43.60
2018-09-04T00:12:05.459Z,32.03
2018-09-04T00:14:38.292Z,34.47
2018-09-04T00:17:11.109Z,47.40
2018-09-04T00:19:43.581Z,39.30
2018-09-04T00:22:16.487Z,39.03
2018-09-04T00:24:50.821Z,43.73
2018-09-04T00:27:24.548Z,43.23
2018-09-04T00:29:58.889Z,40.13
2018-09-04T00:32:32.317Z,39.87
2018-09-04T00:35:05.308Z,39.07
2018-09-04T00:37:39.052Z,39.27
2018-09-04T00:40:11.714Z,50.63
2018-09-04T00:42:45.084Z,49.83
2018-09-04T00:45:17.753Z,63.60
2018-09-04T00:47:50.440Z,63.30
2018-09-04T00:50:23.736Z,89.03
2018-09-04T00:52:57.028Z,84.00
2018-09-04T00:55:30.757Z,84.67
2018-09-04T00:58:03.817Z,72.10
2018-09-04T01:00:37.906Z,63.53
2018-09-04T01:03:11.831Z,53.13
2018-09-04T01:05:44.861Z,57.53
2018-09-04T01:08:17.752Z,63.72
2018-09-04T01:10:50.411Z,52.70
2018-09-04T01:13:22.964Z,54.67
2018-09-04T01:15:56.174Z,77.32
2018-09-04T01:18:29.586Z,55.23
2018-09-04T01:21:02.082Z,66.80
2018-09-04T01:23:35.056Z,68.10
2018-09-04T01:26:07.776Z,71.63
2018-09-04T01:28:40.518Z,75.80
2018-09-04T01:31:13.432Z,80.43
2018-09-04T01:33:46.023Z,83.60
2018-09-04T01:36:18.627Z,64.63
2018-09-04T01:38:52.961Z,72.97
2018-09-04T01:41:26.009Z,61.53
2018-09-04T01:43:58.537Z,61.60
2018-09-04T01:46:32.424Z,84.72
2018-09-04T01:49:04.914Z,68.83
2018-09-04T01:51:37.569Z,78.32
2018-09-04T01:54:10.744Z,55.77
2018-09-04T01:56:43.308Z,62.50
2018-09-04T01:59:15.832Z,65.32
2018-09-04T02:01:49.470Z,63.87
2018-09-04T02:04:22.053Z,69.07
2018-09-04T02:06:54.836Z,81.83
2018-09-04T02:09:28.916Z,73.12
2018-09-04T02:12:01.473Z,76.53
2018-09-04T02:14:34.801Z,62.63
2018-09-04T02:17:07.657Z,57.23
2018-09-04T02:19:40.188Z,45.67
2018-09-04T02:22:12.579Z,53.47
2018-09-04T02:24:47.848Z,62.50
2018-09-04T02:27:20.385Z,72.57
2018-09-04T02:29:53.220Z,57.13
2018-09-04T02:32:26.190Z,50.87
2018-09-04T02:34:58.798Z,55.77
2018-09-04T02:37:31.277Z,71.90
2018-09-04T02:40:05.164Z,57.90
2018-09-04T02:42:37.682Z,56.73
2018-09-04T02:45:12.471Z,54.10
2018-09-04T02:47:45.291Z,57.30
2018-09-04T02:50:17.867Z,55.77
2018-09-04T02:52:50.693Z,53.57
2018-09-04T02:55:23.971Z,50.70
2018-09-04T02:57:56.593Z,59.08
2018-09-04T03:00:29.351Z,50.27
2018-09-04T03:03:02.256Z,49.27
2018-09-04T03:05:34.937Z,53.23
2018-09-04T03:08:07.588Z,48.93
2018-09-04T03:10:41.545Z,41.70
2018-09-04T03:13:13.944Z,50.30
2018-09-04T03:15:46.579Z,55.97
2018-09-04T03:18:19.568Z,52.70
2018-09-04T03:20:52.132Z,45.03
2018-09-04T03:23:25.009Z,46.80
2018-09-04T03:25:57.928Z,58.00
2018-09-04T03:28:30.437Z,55.03
2018-09-04T03:31:03.081Z,48.07
2018-09-04T03:33:36.013Z,46.27
2018-09-04T03:36:08.663Z,44.97
2018-09-04T03:38:41.160Z,46.97
2018-09-04T03:41:14.301Z,49.00
2018-09-04T03:43:46.735Z,42.60
2018-09-04T03:46:20.100Z,48.43
2018-09-04T03:48:53.213Z,53.70
2018-09-04T03:51:25.949Z,61.93
2018-09-04T03:53:58.749Z,60.83
2018-09-04T03:56:31.678Z,60.47
2018-09-04T03:59:04.286Z,57.80
2018-09-04T04:01:36.835Z,61.20
2018-09-04T04:04:09.792Z,57.40
2018-09-04T04:06:42.481Z,55.97
2018-09-04T04:09:15.180Z,57.10
2018-09-04T04:11:48.181Z,56.07
2018-09-04T04:14:21.723Z,55.40
2018-09-04T04:16:54.634Z,66.23
2018-09-04T04:19:27.509Z,87.57
2018-09-04T04:22:00.100Z,103.35
2018-09-04T04:24:32.697Z,76.67
2018-09-04T04:27:07.736Z,62.60
2018-09-04T04:29:40.709Z,53.03
2018-09-04T04:32:13.525Z,69.57
2018-09-04T04:34:48.598Z,61.10
2018-09-04T04:37:22.796Z,54.97
2018-09-04T04:39:56.595Z,48.53
2018-09-04T04:42:29.568Z,56.37
2018-09-04T04:45:03.764Z,61.67
2018-09-04T04:47:42.472Z,57.53
2018-09-04T04:50:15.060Z,61.27
2018-09-04T04:52:47.577Z,58.50
2018-09-04T04:55:20.204Z,55.50
2018-09-04T04:57:52.805Z,58.17
2018-09-04T05:00:25.558Z,66.60
2018-09-04T05:02:58.989Z,84.72
2018-09-04T05:05:31.814Z,64.90
2018-09-04T05:08:04.584Z,82.65
2018-09-04T05:10:39.467Z,91.57
2018-09-04T05:13:12.926Z,54.10
2018-09-04T05:15:45.819Z,57.57
2018-09-04T05:18:19.569Z,55.77
2018-09-04T05:20:53.616Z,54.97
2018-09-04T05:23:26.163Z,78.32
2018-09-04T05:26:01.269Z,65.90
2018-09-04T05:28:33.976Z,60.43
2018-09-04T05:31:06.916Z,51.57
2018-09-04T05:33:42.928Z,72.83
2018-09-04T05:36:16.325Z,77.30
2018-09-04T05:38:49.627Z,55.03
2018-09-04T05:41:22.229Z,73.87
2018-09-04T05:43:58.526Z,73.27
2018-09-04T05:46:38.954Z,70.40
2018-09-04T05:49:13.644Z,65.63
2018-09-04T05:51:49.129Z,71.33
2018-09-04T05:54:22.705Z,68.10
2018-09-04T05:56:56.729Z,73.13
2018-09-04T05:59:29.496Z,74.67
2018-09-04T06:02:02.426Z,86.10
2018-09-04T06:04:36.493Z,82.43
2018-09-04T06:07:10.627Z,69.77
2018-09-04T06:09:44.263Z,67.13
2018-09-04T06:12:17.973Z,88.82
2018-09-04T06:14:50.614Z,66.85
2018-09-04T06:17:23.958Z,50.67
2018-09-04T06:19:57.234Z,55.53
2018-09-04T06:22:29.802Z,55.53
2018-09-04T06:25:03.281Z,54.63
2018-09-04T06:27:35.815Z,61.57
2018-09-04T06:30:08.254Z,61.43
2018-09-04T06:32:41.189Z,69.27
2018-09-04T06:35:14.000Z,67.23
2018-09-04T06:37:46.583Z,70.67
2018-09-04T06:40:20.489Z,76.07
2018-09-04T06:42:54.307Z,71.37
2018-09-04T06:45:27.703Z,73.37
2018-09-04T06:48:04.451Z,75.53
2018-09-04T06:50:38.584Z,61.03
2018-09-04T06:53:13.729Z,62.60
2018-09-04T06:55:46.922Z,62.07
2018-09-04T06:58:26.792Z,64.43
2018-09-04T07:01:07.223Z,62.17
2018-09-04T07:03:40.753Z,59.17
2018-09-04T07:06:15.276Z,68.30
2018-09-04T07:08:47.967Z,63.87
2018-09-04T07:11:20.765Z,56.80
2018-09-04T07:13:57.220Z,66.63
2018-09-04T07:16:29.912Z,62.90
2018-09-04T07:19:02.556Z,60.70
2018-09-04T07:21:36.939Z,60.43
2018-09-04T07:24:09.492Z,67.10
2018-09-04T07:26:44.022Z,59.40
2018-09-04T07:29:17.217Z,55.57
2018-09-04T07:31:50.796Z,62.55
2018-09-04T07:34:25.740Z,54.50
2018-09-04T07:37:02.063Z,55.23
2018-09-04T07:39:38.284Z,56.33
2018-09-04T07:42:11.319Z,57.77
2018-09-04T07:44:46.205Z,59.50
2018-09-04T07:47:18.826Z,52.57
2018-09-04T07:49:54.403Z,51.73
2018-09-04T07:52:35.525Z,45.47
2018-09-04T07:55:09.798Z,50.83
2018-09-04T07:57:51.998Z,45.33
2018-09-04T08:00:29.264Z,40.80
2018-09-04T08:03:03.617Z,45.12
2018-09-04T08:05:42.169Z,39.40
2018-09-04T08:08:17.136Z,39.77
2018-09-04T08:10:53.448Z,45.53
2018-09-04T08:13:31.822Z,41.20
2018-09-04T08:16:05.949Z,39.60
2018-09-04T08:18:40.077Z,38.50
2018-09-04T08:21:14.529Z,37.53
2018-09-04T08:23:51.022Z,36.87
2018-09-04T08:26:24.921Z,36.73
2018-09-04T08:28:57.776Z,41.90
2018-09-04T08:31:30.348Z,38.03
2018-09-04T08:34:04.370Z,41.92
2018-09-04T08:36:38.633Z,39.13
2018-09-04T08:39:11.416Z,37.50
2018-09-04T08:41:45.079Z,38.63
2018-09-04T08:44:18.585Z,36.73
2018-09-04T08:46:51.179Z,28.77
2018-09-04T08:49:24.365Z,35.60
2018-09-04T08:51:59.313Z,35.07
2018-09-04T08:54:33.129Z,31.37
2018-09-04T08:57:06.772Z,33.63
2018-09-04T08:59:43.473Z,31.00
2018-09-04T09:02:16.494Z,30.60
2018-09-04T09:04:50.081Z,35.47
2018-09-04T09:07:22.508Z,29.30
2018-09-04T09:09:56.001Z,30.40
2018-09-04T09:12:29.301Z,29.80
2018-09-04T09:15:06.710Z,30.73
2018-09-04T09:17:39.919Z,33.08
2018-09-04T09:20:14.490Z,30.58
2018-09-04T09:22:47.210Z,28.57
2018-09-04T09:25:19.712Z,25.83
2018-09-04T09:27:53.275Z,26.27
2018-09-04T09:30:33.752Z,24.97
2018-09-04T09:33:10.185Z,27.67
2018-09-04T09:35:42.687Z,26.50
2018-09-04T09:38:17.664Z,25.73
2018-09-04T09:40:52.683Z,26.37
2018-09-04T09:43:27.324Z,29.42
2018-09-04T09:46:00.925Z,27.03
2018-09-04T09:48:40.031Z,26.97
2018-09-04T09:51:20.359Z,26.67
2018-09-04T09:53:54.219Z,26.73
2018-09-04T09:56:31.017Z,28.58
2018-09-04T09:59:04.241Z,23.67
2018-09-04T10:01:43.565Z,28.87
2018-09-04T10:04:21.789Z,25.47
2018-09-04T10:06:58.266Z,28.27
2018-09-04T10:09:33.521Z,28.07
2018-09-04T10:12:06.961Z,29.10
2018-09-04T10:14:39.719Z,30.15
2018-09-04T10:17:13.803Z,25.00
2018-09-04T10:19:47.355Z,25.67
2018-09-04T10:22:21.470Z,27.90
2018-09-04T10:24:59.096Z,23.67
2018-09-04T10:27:31.952Z,22.07
2018-09-04T10:30:12.744Z,24.15
2018-09-04T10:32:52.324Z,26.07
2018-09-04T10:35:24.853Z,23.63
2018-09-04T10:38:00.640Z,24.83
2018-09-04T10:40:44.513Z,27.13
2018-09-04T10:43:29.633Z,25.23
2018-09-04T10:46:07.560Z,23.87
2018-09-04T10:48:44.801Z,22.13
2018-09-04T10:51:22.242Z,25.17
2018-09-04T10:53:54.818Z,26.17
2018-09-04T10:56:29.940Z,21.77
2018-09-04T10:59:04.901Z,23.93
2018-09-04T11:01:39.558Z,24.13
2018-09-04T11:04:13.760Z,22.90
2018-09-04T11:06:48.432Z,24.17
2018-09-04T11:09:21.689Z,20.30
2018-09-04T11:11:55.577Z,21.00
2018-09-04T11:14:28.735Z,23.10
2018-09-04T11:17:01.337Z,22.30
2018-09-04T11:19:34.393Z,22.13
2018-09-04T11:22:10.133Z,22.67
2018-09-04T11:24:42.776Z,21.23
2018-09-04T11:27:16.117Z,21.13
2018-09-04T11:29:51.372Z,19.03
2018-09-04T11:32:25.376Z,19.77
2018-09-04T11:34:57.956Z,17.80
2018-09-04T11:37:30.697Z,17.20
2018-09-04T11:40:03.978Z,16.50
2018-09-04T11:42:36.814Z,17.03
2018-09-04T11:45:10.226Z,17.70
2018-09-04T11:47:45.040Z,18.20
2018-09-04T11:50:18.350Z,18.85
2018-09-04T11:52:51.916Z,21.27
2018-09-04T11:55:26.176Z,17.93
2018-09-04T11:57:59.013Z,19.20
2018-09-04T12:00:38.423Z,18.30
2018-09-04T12:03:13.177Z,16.77
2018-09-04T12:05:49.169Z,16.17
2018-09-04T12:08:21.553Z,19.30
2018-09-04T12:10:58.107Z,19.63
2018-09-04T12:13:32.037Z,18.07
2018-09-04T12:16:05.664Z,23.30
2018-09-04T12:18:39.779Z,18.93
2018-09-04T12:21:13.353Z,16.83
2018-09-04T12:23:46.785Z,21.35
2018-09-04T12:26:21.721Z,22.20
2018-09-04T12:28:54.964Z,20.93
2018-09-04T12:31:29.418Z,21.50
2018-09-04T12:34:02.404Z,20.33
2018-09-04T12:36:35.555Z,20.57
2018-09-04T12:39:08.575Z,21.27
2018-09-04T12:41:41.245Z,19.53
2018-09-04T12:44:13.984Z,20.62
2018-09-04T12:46:47.397Z,16.07
2018-09-04T12:49:20.092Z,15.30
2018-09-04T12:51:56.738Z,17.00
2018-09-04T12:54:32.456Z,16.80
2018-09-04T12:57:05.999Z,17.77
2018-09-04T12:59:43.707Z,17.13
2018-09-04T13:02:16.708Z,18.83
2018-09-04T13:04:49.339Z,20.52
2018-09-04T13:07:22.865Z,17.47
2018-09-04T13:09:56.004Z,17.20
2018-09-04T13:12:31.324Z,16.07
2018-09-04T13:15:08.888Z,17.50
2018-09-04T13:17:44.155Z,19.80
2018-09-04T13:20:24.225Z,18.73
2018-09-04T13:22:56.828Z,16.80
2018-09-04T13:25:30.813Z,15.83
2018-09-04T13:28:05.542Z,16.70
2018-09-04T13:30:41.897Z,17.07
2018-09-04T13:33:14.749Z,19.17
2018-09-04T13:35:49.949Z,19.33
2018-09-04T13:38:23.417Z,20.57
2018-09-04T13:41:09.750Z,20.73
2018-09-04T13:43:43.372Z,18.40
2018-09-04T13:46:17.676Z,20.03
2018-09-04T13:48:56.352Z,23.33
2018-09-04T13:51:29.488Z,22.17
2018-09-04T13:54:02.566Z,16.93
2018-09-04T13:56:37.440Z,18.83
2018-09-04T13:59:10.839Z,18.83
2018-09-04T14:01:47.245Z,18.20
2018-09-04T14:04:26.970Z,17.97
2018-09-04T14:07:04.048Z,17.50
2018-09-04T14:09:39.061Z,22.65
2018-09-04T14:12:15.183Z,19.43
2018-09-04T14:14:51.331Z,17.87
2018-09-04T14:17:29.219Z,18.63
2018-09-04T14:20:04.214Z,18.60
2018-09-04T14:22:37.949Z,17.90
2018-09-04T14:25:12.844Z,13.97
2018-09-04T14:27:47.380Z,15.50
2018-09-04T14:30:26.374Z,15.30
2018-09-04T14:33:01.738Z,16.93
2018-09-04T14:35:38.936Z,13.27
2018-09-04T14:38:13.367Z,19.00
2018-09-04T14:40:47.650Z,21.67
2018-09-04T14:43:20.436Z,31.10
2018-09-04T14:45:54.654Z,32.53
2018-09-04T14:48:27.345Z,37.60
2018-09-04T14:51:00.873Z,38.57
2018-09-04T14:53:34.792Z,39.27
2018-09-04T14:56:09.615Z,41.37
2018-09-04T14:58:43.024Z,41.53
2018-09-04T15:01:18.827Z,43.28
2018-09-04T15:03:52.828Z,35.23
2018-09-04T15:06:26.237Z,34.60
2018-09-04T15:09:00.040Z,36.90
2018-09-04T15:11:34.351Z,42.42
2018-09-04T15:14:08.965Z,39.67
2018-09-04T15:16:42.610Z,32.87
2018-09-04T15:19:15.489Z,40.80
2018-09-04T15:21:50.362Z,40.30
2018-09-04T15:24:23.545Z,37.43
2018-09-04T15:27:02.768Z,39.73
2018-09-04T15:29:40.253Z,44.83
2018-09-04T15:32:13.155Z,39.33
2018-09-04T15:34:48.554Z,32.67
2018-09-04T15:37:21.962Z,36.92
2018-09-04T15:39:55.802Z,37.08
2018-09-04T15:42:31.171Z,34.77
2018-09-04T15:45:06.353Z,33.80
2018-09-04T15:47:39.953Z,31.20
2018-09-04T15:50:13.415Z,25.03
2018-09-04T15:52:50.095Z,22.43
2018-09-04T15:55:23.549Z,21.33
2018-09-04T15:57:57.477Z,14.07
2018-09-04T16:00:30.653Z,15.17
2018-09-04T16:03:04.328Z,17.87
2018-09-04T16:05:41.028Z,17.83
2018-09-04T16:08:19.473Z,24.90
2018-09-04T16:10:57.670Z,27.87
2018-09-04T16:13:36.553Z,17.50
2018-09-04T16:16:18.067Z,14.43
2018-09-04T16:19:04.828Z,11.37
2018-09-04T16:21:41.342Z,12.67
2018-09-04T16:24:21.020Z,13.73
2018-09-04T16:26:54.641Z,13.43
2018-09-04T16:29:28.596Z,15.77
2018-09-04T16:32:01.257Z,17.43
2018-09-04T16:34:35.379Z,17.43
2018-09-04T16:37:09.396Z,18.53
2018-09-04T16:39:45.804Z,16.47
2018-09-04T16:42:21.176Z,20.47
2018-09-04T16:44:57.292Z,21.13
2018-09-04T16:47:30.531Z,22.60
2018-09-04T16:50:05.264Z,20.13
2018-09-04T16:52:47.621Z,20.27
2018-09-04T16:55:39.210Z,18.40
2018-09-04T16:58:12.498Z,17.43
2018-09-04T17:00:47.893Z,17.43
2018-09-04T17:03:21.722Z,16.57
2018-09-04T17:05:57.810Z,18.70
2018-09-04T17:08:35.717Z,19.13
2018-09-04T17:11:14.324Z,18.37
2018-09-04T17:13:56.457Z,20.97
2018-09-04T17:16:32.210Z,18.30
2018-09-04T17:19:10.257Z,17.60
2018-09-04T17:21:46.775Z,21.83
2018-09-04T17:24:25.249Z,18.23
2018-09-04T17:26:59.477Z,18.30
2018-09-04T17:29:37.876Z,20.13
2018-09-04T17:32:15.748Z,20.23
2018-09-04T17:35:01.049Z,18.27
2018-09-04T17:37:37.179Z,26.95
2018-09-04T17:40:12.985Z,24.27
2018-09-04T17:42:50.717Z,20.00
2018-09-04T17:45:29.066Z,21.70
2018-09-04T17:48:04.005Z,21.73
2018-09-04T17:50:41.246Z,25.23
2018-09-04T17:53:16.010Z,27.50
2018-09-04T17:55:50.021Z,24.33
2018-09-04T17:58:24.794Z,20.90
2018-09-04T18:00:58.444Z,21.20
2018-09-04T18:03:32.203Z,26.63
2018-09-04T18:06:10.514Z,26.93
2018-09-04T18:08:44.971Z,30.00
2018-09-04T18:11:20.899Z,31.13
2018-09-04T18:13:55.204Z,28.03
2018-09-04T18:16:28.789Z,30.77
2018-09-04T18:19:02.513Z,35.00
2018-09-04T18:21:37.620Z,30.90
2018-09-04T18:24:11.814Z,34.58
2018-09-04T18:26:48.366Z,32.50
2018-09-04T18:29:20.909Z,26.77
2018-09-04T18:31:55.574Z,37.65
2018-09-04T18:34:28.490Z,30.43
2018-09-04T18:37:03.634Z,28.10
2018-09-04T18:39:42.203Z,29.77
2018-09-04T18:42:16.656Z,33.43
2018-09-04T18:44:49.547Z,35.57
2018-09-04T18:47:24.768Z,35.60
2018-09-04T18:49:58.301Z,34.90
2018-09-04T18:52:32.138Z,36.27
2018-09-04T18:55:07.763Z,35.77
2018-09-04T18:57:41.031Z,38.50
2018-09-04T19:00:15.000Z,44.33
2018-09-04T19:02:50.093Z,45.80
2018-09-04T19:05:26.844Z,45.87
2018-09-04T19:08:01.786Z,45.63
2018-09-04T19:10:36.372Z,39.37
2018-09-04T19:13:11.337Z,37.20
2018-09-04T19:15:44.267Z,36.10
2018-09-04T19:18:17.645Z,39.53
2018-09-04T19:20:51.594Z,34.27
2018-09-04T19:23:28.033Z,42.93
2018-09-04T19:26:01.351Z,39.73
2018-09-04T19:28:35.197Z,40.17
2018-09-04T19:31:08.083Z,40.20
2018-09-04T19:33:41.685Z,44.17
2018-09-04T19:36:16.292Z,42.73
2018-09-04T19:38:51.692Z,40.47
2018-09-04T19:41:24.325Z,46.35
2018-09-04T19:43:58.637Z,35.17
2018-09-04T19:46:34.634Z,42.90
2018-09-04T19:49:10.784Z,34.13
2018-09-04T19:51:46.701Z,37.17
2018-09-04T19:54:23.600Z,38.87
2018-09-04T19:56:59.952Z,40.47
2018-09-04T19:59:33.667Z,44.50
2018-09-04T20:02:09.664Z,53.75
2018-09-04T20:04:45.200Z,45.00
2018-09-04T20:09:54.265Z,47.67
2018-09-04T20:12:28.250Z,42.03
2018-09-04T20:15:07.743Z,43.10
2018-09-04T20:17:41.070Z,33.43
2018-09-04T20:20:15.262Z,35.57
2018-09-04T20:22:50.287Z,43.13
2018-09-04T20:25:24.602Z,44.60
2018-09-04T20:27:57.426Z,41.17
2018-09-04T20:30:34.339Z,43.27
2018-09-04T20:33:09.208Z,59.20
2018-09-04T20:35:44.292Z,62.92
2018-09-04T20:38:18.577Z,49.77
2018-09-04T20:40:52.233Z,44.00
2018-09-04T20:43:25.156Z,48.65
2018-09-04T20:45:59.979Z,45.87
2018-09-04T20:48:34.026Z,43.90
2018-09-04T20:51:07.675Z,59.40
2018-09-04T20:53:42.107Z,49.53
2018-09-04T20:56:23.045Z,46.27
2018-09-04T20:59:18.922Z,46.07
2018-09-04T21:02:17.550Z,63.08
2018-09-04T21:05:15.292Z,64.53
2018-09-04T21:08:47.096Z,53.43
2018-09-04T21:11:20.489Z,45.17
2018-09-04T21:13:57.899Z,51.77
2018-09-04T21:16:36.229Z,53.80
2018-09-04T21:19:11.159Z,54.07
2018-09-04T21:21:46.326Z,60.15
2018-09-04T21:24:19.061Z,59.75
2018-09-04T21:26:53.087Z,60.15
2018-09-04T21:29:26.308Z,46.20
2018-09-04T21:32:00.701Z,43.77
2018-09-04T21:34:33.337Z,42.83
2018-09-04T21:37:08.344Z,48.30
2018-09-04T21:39:44.604Z,47.50
2018-09-04T21:42:18.665Z,53.63
2018-09-04T21:44:52.644Z,54.43
2018-09-04T21:47:26.828Z,61.00
2018-09-04T21:49:59.484Z,54.23
2018-09-04T21:52:34.192Z,50.97
2018-09-04T21:55:08.257Z,50.00
2018-09-04T21:57:42.273Z,45.33
2018-09-04T22:00:23.890Z,48.33
2018-09-04T22:02:58.043Z,45.53
2018-09-04T22:05:32.887Z,36.13
2018-09-04T22:08:07.125Z,45.37
2018-09-04T22:10:44.036Z,62.92
2018-09-04T22:13:18.215Z,51.37
2018-09-04T22:15:51.935Z,45.77
2018-09-04T22:18:27.499Z,41.47
2018-09-04T22:21:08.769Z,47.67
2018-09-04T22:23:44.588Z,49.37
2018-09-04T22:26:19.565Z,52.13
2018-09-04T22:28:53.727Z,47.63
2018-09-04T22:31:26.360Z,50.37
2018-09-04T22:33:59.475Z,54.33
2018-09-04T22:36:33.259Z,57.97
2018-09-04T22:39:08.826Z,66.17
2018-09-04T22:41:42.022Z,54.27
2018-09-04T22:44:15.585Z,61.83
2018-09-04T22:46:49.318Z,48.27
2018-09-04T22:49:21.992Z,45.30
2018-09-04T22:52:02.097Z,55.93
2018-09-04T22:54:36.952Z,50.07
2018-09-04T22:57:12.717Z,58.17
2018-09-04T22:59:46.575Z,54.50
2018-09-04T23:02:20.703Z,53.57
2018-09-04T23:04:53.412Z,54.20
2018-09-04T23:07:26.779Z,56.70
2018-09-04T23:09:59.408Z,47.83
2018-09-04T23:12:32.788Z,53.33
2018-09-04T23:15:07.037Z,52.47
2018-09-04T23:17:39.801Z,57.17
2018-09-04T23:20:12.757Z,57.47
2018-09-04T23:22:46.256Z,69.40
2018-09-04T23:25:18.900Z,73.27
2018-09-04T23:27:51.652Z,80.33
2018-09-04T23:30:26.269Z,82.47
2018-09-04T23:33:00.993Z,71.10
2018-09-04T23:35:34.162Z,70.73
2018-09-04T23:38:09.052Z,69.73
2018-09-04T23:40:42.304Z,61.33
2018-09-04T23:43:14.956Z,52.77
2018-09-04T23:45:48.849Z,67.07
2018-09-04T23:48:21.548Z,81.18
2018-09-04T23:50:54.849Z,61.27
2018-09-04T23:53:28.860Z,58.50
2018-09-04T23:56:01.645Z,53.63
2018-09-04T23:58:36.636Z,75.20
